createdAt,value
2022-12-29T00:00:12.345Z,4.4
2022-12-29T00:01:18.627Z,4.4
2022-12-29T00:02:24.892Z,4.4
2022-12-29T00:03:31.173Z,4.4
2022-12-29T00:04:36.459Z,4.4
2022-12-29T00:05:42.726Z,4.4
2022-12-29T00:06:48.997Z,4.4
2022-12-29T00:07:55.276Z,4.4
2022-12-29T00:09:01.569Z,4.4
2022-12-29T00:10:07.836Z,4.4
2022-12-29T00:11:14.098Z,4.4
2022-12-29T00:12:20.356Z,4.4
2022-12-29T00:13:26.634Z,4.4
2022-12-29T00:14:32.910Z,4.4
2022-12-29T00:15:39.181Z,4.4
2022-12-29T00:16:45.625Z,4.4
2022-12-29T00:17:51.874Z,4.4
2022-12-29T00:18:57.184Z,4.5
2022-12-29T00:20:03.488Z,4.6
2022-12-29T00:21:09.784Z,4.6
2022-12-29T00:22:16.004Z,4.7
2022-12-29T00:23:22.302Z,4.7
2022-12-29T00:24:28.622Z,4.7
2022-12-29T00:25:34.642Z,4.7
2022-12-29T00:26:40.937Z,4.7
2022-12-29T00:27:47.297Z,4.6
2022-12-29T00:28:53.652Z,4.6
2022-12-29T00:29:59.725Z,4.5
2022-12-29T00:31:06.125Z,4.5
2022-12-29T00:32:12.473Z,4.5
2022-12-29T00:33:17.690Z,4.4
2022-12-29T00:34:24.022Z,4.4
2022-12-29T00:35:30.198Z,4.4
2022-12-29T00:36:36.588Z,4.3
2022-12-29T00:37:42.836Z,4.3
2022-12-29T00:38:49.087Z,4.2
2022-12-29T00:39:55.433Z,4.2
2022-12-29T00:41:01.577Z,4.2
2022-12-29T00:42:07.954Z,4.2
2022-12-29T00:43:14.160Z,4.2
2022-12-29T00:44:20.422Z,4.2
2022-12-29T00:45:26.740Z,4.2
2022-12-29T00:46:32.903Z,4.2
2022-12-29T00:47:38.273Z,4.2
2022-12-29T00:48:44.474Z,4.2
2022-12-29T00:49:50.670Z,4.3
2022-12-29T00:50:57.096Z,4.3
2022-12-29T00:52:03.347Z,4.3
2022-12-29T00:53:09.664Z,4.3
2022-12-29T00:54:15.751Z,4.3
2022-12-29T00:55:22.145Z,4.3
2022-12-29T00:56:28.306Z,4.3
2022-12-29T00:57:34.724Z,4.3
2022-12-29T00:58:40.996Z,4.3
2022-12-29T00:59:47.289Z,4.4
2022-12-29T01:00:53.506Z,4.4
2022-12-29T01:01:58.819Z,4.4
2022-12-29T01:03:05.070Z,4.4
2022-12-29T01:04:11.394Z,4.4
2022-12-29T01:05:17.597Z,4.4
2022-12-29T01:06:23.916Z,4.5
2022-12-29T01:07:30.277Z,4.5
2022-12-29T01:08:36.305Z,4.5
2022-12-29T01:09:42.710Z,4.5
2022-12-29T01:10:48.985Z,4.5
2022-12-29T01:11:55.116Z,4.5
2022-12-29T01:13:01.482Z,4.5
2022-12-29T01:14:07.664Z,4.5
2022-12-29T01:15:13.948Z,4.5
2022-12-29T01:16:20.209Z,4.5
2022-12-29T01:17:25.666Z,4.5
2022-12-29T01:18:31.768Z,4.5
2022-12-29T01:19:38.203Z,4.5
2022-12-29T01:20:44.445Z,4.5
2022-12-29T01:21:50.750Z,4.5
2022-12-29T01:22:56.979Z,4.5
2022-12-29T01:24:03.199Z,4.5
2022-12-29T01:25:09.515Z,4.5
2022-12-29T01:26:15.867Z,4.5
2022-12-29T01:27:22.113Z,4.5
2022-12-29T01:28:28.400Z,4.6
2022-12-29T01:29:34.506Z,4.6
2022-12-29T01:30:40.905Z,4.7
2022-12-29T01:31:46.169Z,4.7
2022-12-29T01:32:52.515Z,4.7
2022-12-29T01:33:58.599Z,4.7
2022-12-29T01:35:05.033Z,4.7
2022-12-29T01:36:11.308Z,4.7
2022-12-29T01:37:17.606Z,4.7
2022-12-29T01:38:23.690Z,4.7
2022-12-29T01:39:30.122Z,4.7
2022-12-29T01:40:36.323Z,4.8
2022-12-29T01:41:42.739Z,4.8
2022-12-29T01:42:48.944Z,4.8
2022-12-29T01:43:55.292Z,4.8
2022-12-29T01:45:01.518Z,4.8
2022-12-29T01:46:06.732Z,4.8
2022-12-29T01:47:13.024Z,4.8
2022-12-29T01:48:19.289Z,4.8
2022-12-29T01:49:25.584Z,4.7
2022-12-29T01:50:31.865Z,4.7
2022-12-29T01:51:38.087Z,4.7
2022-12-29T01:52:44.467Z,4.7
2022-12-29T01:53:50.520Z,4.7
2022-12-29T01:54:56.848Z,4.7
2022-12-29T01:56:03.067Z,4.7
2022-12-29T01:57:09.337Z,4.7
2022-12-29T01:58:15.601Z,4.7
2022-12-29T01:59:21.879Z,4.7
2022-12-29T02:00:27.158Z,4.7
2022-12-29T02:01:33.454Z,4.7
2022-12-29T02:02:39.706Z,4.7
2022-12-29T02:03:45.976Z,4.7
2022-12-29T02:04:52.255Z,4.7
2022-12-29T02:05:58.538Z,4.7
2022-12-29T02:07:04.791Z,4.7
2022-12-29T02:08:11.065Z,4.7
2022-12-29T02:09:17.359Z,4.7
2022-12-29T02:10:23.717Z,4.7
2022-12-29T02:11:29.884Z,4.7
2022-12-29T02:12:36.170Z,4.7
2022-12-29T02:13:42.450Z,4.7
2022-12-29T02:14:47.792Z,4.7
2022-12-29T02:15:54.038Z,4.7
2022-12-29T02:17:00.463Z,4.7
2022-12-29T02:18:06.597Z,4.7
2022-12-29T02:19:12.959Z,4.7
2022-12-29T02:20:19.216Z,4.7
2022-12-29T02:21:25.570Z,4.7
2022-12-29T02:22:31.787Z,4.7
2022-12-29T02:23:38.138Z,4.8
2022-12-29T02:24:44.356Z,4.8
2022-12-29T02:25:50.664Z,4.8
2022-12-29T02:26:56.842Z,4.8
2022-12-29T02:28:03.163Z,4.8
2022-12-29T02:29:08.445Z,4.9
2022-12-29T02:30:14.680Z,4.9
2022-12-29T02:31:20.890Z,4.9
2022-12-29T02:32:27.090Z,4.9
2022-12-29T02:33:33.599Z,4.9
2022-12-29T02:34:39.798Z,4.9
2022-12-29T02:35:46.081Z,4.9
2022-12-29T02:36:52.356Z,4.9
2022-12-29T02:37:58.567Z,4.9
2022-12-29T02:39:04.868Z,4.9
2022-12-29T02:40:11.104Z,4.9
2022-12-29T02:41:17.430Z,4.9
2022-12-29T02:42:23.718Z,4.9
2022-12-29T02:43:29.003Z,4.9
2022-12-29T02:44:35.261Z,4.9
2022-12-29T02:45:41.495Z,4.9
2022-12-29T02:46:47.781Z,4.9
2022-12-29T02:47:54.097Z,4.9
2022-12-29T02:49:00.182Z,5
2022-12-29T02:50:06.583Z,5
2022-12-29T02:51:12.771Z,5
2022-12-29T02:52:19.116Z,5.1
2022-12-29T02:53:25.359Z,5.1
2022-12-29T02:54:31.546Z,5.1
2022-12-29T02:55:37.939Z,5.1
2022-12-29T02:56:44.297Z,5.1
2022-12-29T02:57:49.431Z,5.1
2022-12-29T02:58:55.816Z,5.1
2022-12-29T03:00:02.035Z,5.1
2022-12-29T03:01:08.348Z,5.1
2022-12-29T03:02:14.639Z,5.1
2022-12-29T03:03:19.947Z,5.1
2022-12-29T03:04:26.223Z,5.1
2022-12-29T03:05:32.414Z,5.1
2022-12-29T03:06:38.756Z,5.1
2022-12-29T03:07:45.016Z,5.1
2022-12-29T03:08:51.238Z,5.1
2022-12-29T03:09:57.587Z,5.1
2022-12-29T03:11:03.796Z,5.1
2022-12-29T03:12:09.945Z,5.1
2022-12-29T03:13:16.397Z,5.1
2022-12-29T03:14:22.510Z,5.1
2022-12-29T03:15:28.930Z,5.1
2022-12-29T03:16:35.222Z,5.1
2022-12-29T03:17:40.484Z,5.1
2022-12-29T03:18:46.780Z,5.1
2022-12-29T03:19:52.866Z,5.1
2022-12-29T03:20:59.276Z,5.1
2022-12-29T03:22:05.576Z,5.1
2022-12-29T03:23:11.686Z,5.1
2022-12-29T03:24:17.944Z,5.1
2022-12-29T03:25:24.224Z,5.1
2022-12-29T03:26:30.526Z,5.2
2022-12-29T03:27:36.768Z,5.2
2022-12-29T03:28:43.039Z,5.2
2022-12-29T03:29:49.321Z,5.2
2022-12-29T03:30:55.586Z,5.2
2022-12-29T03:32:00.889Z,5.2
2022-12-29T03:33:07.143Z,5.2
2022-12-29T03:34:13.416Z,5.3
2022-12-29T03:35:19.701Z,5.3
2022-12-29T03:36:26.015Z,5.3
2022-12-29T03:37:32.417Z,5.3
2022-12-29T03:38:38.500Z,5.3
2022-12-29T03:39:44.784Z,5.4
2022-12-29T03:40:51.176Z,5.4
2022-12-29T03:41:57.320Z,5.4
2022-12-29T03:43:03.604Z,5.4
2022-12-29T03:44:09.868Z,5.4
2022-12-29T03:45:16.176Z,5.4
2022-12-29T03:46:21.560Z,5.4
2022-12-29T03:47:27.690Z,5.4
2022-12-29T03:48:33.981Z,5.4
2022-12-29T03:49:40.351Z,5.4
2022-12-29T03:50:46.639Z,5.4
2022-12-29T03:51:52.805Z,5.4
2022-12-29T03:52:59.128Z,5.4
2022-12-29T03:54:05.468Z,5.5
2022-12-29T03:55:11.788Z,5.5
2022-12-29T03:56:17.974Z,5.5
2022-12-29T03:57:24.157Z,5.5
2022-12-29T03:58:30.565Z,5.5
2022-12-29T03:59:36.744Z,5.5
2022-12-29T04:00:42.053Z,5.5
2022-12-29T04:01:48.380Z,5.4
2022-12-29T04:02:54.583Z,5.4
2022-12-29T04:04:00.890Z,5.4
2022-12-29T04:05:07.112Z,5.5
2022-12-29T04:06:13.461Z,5.5
2022-12-29T04:07:19.748Z,5.5
2022-12-29T04:08:25.910Z,5.5
2022-12-29T04:09:32.331Z,5.6
2022-12-29T04:10:38.595Z,5.6
2022-12-29T04:11:44.798Z,5.6
2022-12-29T04:12:50.981Z,5.6
2022-12-29T04:13:57.284Z,5.6
2022-12-29T04:15:02.620Z,5.5
2022-12-29T04:16:08.813Z,5.5
2022-12-29T04:17:15.075Z,5.6
2022-12-29T04:18:21.517Z,5.6
2022-12-29T04:19:27.790Z,5.7
2022-12-29T04:20:34.024Z,5.7
2022-12-29T04:21:40.335Z,5.8
2022-12-29T04:22:46.606Z,5.8
2022-12-29T04:23:52.911Z,5.8
2022-12-29T04:24:58.985Z,5.8
2022-12-29T04:26:05.409Z,5.8
2022-12-29T04:27:11.643Z,5.8
2022-12-29T04:28:17.899Z,5.8
2022-12-29T04:29:23.268Z,5.8
2022-12-29T04:30:29.543Z,5.8
2022-12-29T04:31:35.731Z,5.7
2022-12-29T04:32:42.028Z,5.7
2022-12-29T04:33:48.422Z,5.7
2022-12-29T04:34:54.599Z,5.7
2022-12-29T04:36:00.790Z,5.7
2022-12-29T04:37:07.156Z,5.7
2022-12-29T04:38:13.409Z,5.7
2022-12-29T04:39:19.711Z,5.7
2022-12-29T04:40:25.910Z,5.7
2022-12-29T04:41:32.216Z,5.7
2022-12-29T04:42:38.477Z,5.7
2022-12-29T04:43:43.821Z,5.7
2022-12-29T04:44:50.043Z,5.8
2022-12-29T04:45:56.357Z,5.8
2022-12-29T04:47:02.600Z,5.8
2022-12-29T04:48:08.928Z,5.8
2022-12-29T04:49:15.008Z,5.8
2022-12-29T04:50:21.269Z,5.8
2022-12-29T04:51:27.551Z,5.8
2022-12-29T04:52:33.820Z,5.7
2022-12-29T04:53:40.112Z,5.7
2022-12-29T04:54:46.367Z,5.7
2022-12-29T04:55:52.697Z,5.7
2022-12-29T04:56:58.909Z,5.7
2022-12-29T04:58:04.208Z,5.7
2022-12-29T05:00:16.741Z,5.7
2022-12-29T05:01:23.020Z,5.7
2022-12-29T05:02:29.291Z,5.6
2022-12-29T05:03:35.559Z,5.6
2022-12-29T05:04:41.832Z,5.6
2022-12-29T05:05:48.109Z,5.6
2022-12-29T05:06:54.374Z,5.6
2022-12-29T05:08:00.815Z,5.7
2022-12-29T05:09:06.981Z,5.6
2022-12-29T05:10:13.266Z,5.6
2022-12-29T05:11:19.554Z,5.6
2022-12-29T05:12:24.909Z,5.6
2022-12-29T05:13:31.027Z,5.6
2022-12-29T05:14:37.425Z,5.6
2022-12-29T05:15:43.653Z,5.6
2022-12-29T05:16:50.048Z,5.6
2022-12-29T05:17:56.313Z,5.6
2022-12-29T05:19:02.527Z,5.6
2022-12-29T05:20:07.746Z,5.6
2022-12-29T05:21:13.171Z,5.6
2022-12-29T05:22:18.329Z,5.6
2022-12-29T05:23:23.635Z,5.6
2022-12-29T05:24:29.855Z,5.6
2022-12-29T05:25:36.281Z,5.6
2022-12-29T05:26:42.378Z,5.6
2022-12-29T05:27:48.669Z,5.6
2022-12-29T05:28:55.093Z,5.6
2022-12-29T05:30:01.397Z,5.6
2022-12-29T05:31:07.487Z,5.5
2022-12-29T05:32:13.884Z,5.5
2022-12-29T05:33:20.151Z,5.5
2022-12-29T05:34:26.396Z,5.6
2022-12-29T05:35:32.699Z,5.6
2022-12-29T05:36:38.917Z,5.5
2022-12-29T05:37:44.185Z,5.5
2022-12-29T05:38:50.574Z,5.5
2022-12-29T05:39:56.899Z,5.5
2022-12-29T05:41:03.115Z,5.5
2022-12-29T05:42:09.335Z,5.5
2022-12-29T05:43:15.525Z,5.5
2022-12-29T05:44:21.880Z,5.5
2022-12-29T05:45:28.165Z,5.5
2022-12-29T05:46:34.404Z,5.5
2022-12-29T05:47:40.746Z,5.4
2022-12-29T05:48:46.944Z,5.4
2022-12-29T05:49:53.291Z,5.4
2022-12-29T05:50:59.483Z,5.4
2022-12-29T05:52:04.836Z,5.4
2022-12-29T05:53:11.131Z,5.3
2022-12-29T05:54:17.209Z,5.3
2022-12-29T05:55:23.504Z,5.3
2022-12-29T05:56:29.915Z,5.3
2022-12-29T05:57:36.055Z,5.2
2022-12-29T05:58:42.306Z,5.3
2022-12-29T05:59:48.764Z,5.3
2022-12-29T06:00:55.022Z,5.3
2022-12-29T06:02:01.293Z,5.4
2022-12-29T06:03:07.543Z,5.4
2022-12-29T06:04:13.822Z,5.5
2022-12-29T06:05:19.936Z,5.5
2022-12-29T06:06:25.488Z,5.5
2022-12-29T06:07:31.680Z,5.6
2022-12-29T06:08:37.956Z,5.6
2022-12-29T06:09:44.086Z,5.6
2022-12-29T06:10:50.500Z,5.6
2022-12-29T06:11:56.720Z,5.6
2022-12-29T06:13:03.035Z,5.6
2022-12-29T06:14:09.223Z,5.5
2022-12-29T06:15:15.646Z,5.5
2022-12-29T06:16:21.673Z,5.4
2022-12-29T06:17:27.948Z,5.4
2022-12-29T06:18:34.218Z,5.4
2022-12-29T06:19:40.490Z,5.4
2022-12-29T06:20:45.783Z,5.4
2022-12-29T06:21:52.057Z,5.4
2022-12-29T06:22:58.328Z,5.4
2022-12-29T06:24:04.597Z,5.4
2022-12-29T06:25:10.942Z,5.4
2022-12-29T06:26:17.146Z,5.3
2022-12-29T06:27:23.421Z,5.4
2022-12-29T06:28:29.683Z,5.4
2022-12-29T06:29:35.960Z,5.4
2022-12-29T06:30:42.230Z,5.5
2022-12-29T06:31:48.522Z,5.5
2022-12-29T06:32:54.766Z,5.5
2022-12-29T06:34:01.156Z,5.5
2022-12-29T06:35:06.351Z,5.5
2022-12-29T06:36:12.629Z,5.5
2022-12-29T06:37:18.863Z,5.6
2022-12-29T06:39:31.490Z,5.5
2022-12-29T06:40:37.808Z,5.5
2022-12-29T06:41:44.120Z,5.5
2022-12-29T06:42:50.297Z,5.5
2022-12-29T06:43:56.504Z,5.5
2022-12-29T06:45:01.814Z,5.5
2022-12-29T06:46:08.196Z,5.5
2022-12-29T06:47:14.501Z,5.5
2022-12-29T06:48:20.795Z,5.4
2022-12-29T06:49:27.020Z,5.4
2022-12-29T06:50:33.276Z,5.4
2022-12-29T06:51:39.616Z,5.4
2022-12-29T06:52:45.713Z,5.4
2022-12-29T06:53:52.176Z,5.4
2022-12-29T06:56:04.556Z,5.3
2022-12-29T06:57:10.836Z,5.3
2022-12-29T06:58:17.146Z,5.3
2022-12-29T06:59:22.461Z,5.3
2022-12-29T07:00:28.640Z,5.2
2022-12-29T07:01:35.075Z,5.2
2022-12-29T07:02:41.355Z,5.2
2022-12-29T07:03:47.576Z,5.2
2022-12-29T07:04:53.927Z,5.2
2022-12-29T07:06:00.182Z,5.2
2022-12-29T07:07:06.327Z,5.2
2022-12-29T07:08:12.633Z,5.2
2022-12-29T07:09:18.863Z,5.2
2022-12-29T07:10:25.275Z,5.2
2022-12-29T07:11:31.622Z,5.2
2022-12-29T07:12:37.783Z,5.2
2022-12-29T07:13:43.013Z,5.2
2022-12-29T07:14:49.330Z,5.2
2022-12-29T07:15:55.545Z,5.2
2022-12-29T07:17:01.861Z,5.1
2022-12-29T07:18:08.247Z,5.1
2022-12-29T07:19:14.388Z,5.1
2022-12-29T07:20:20.746Z,5.1
2022-12-29T07:21:26.971Z,5.1
2022-12-29T07:22:33.349Z,5.1
2022-12-29T07:23:39.526Z,5.1
2022-12-29T07:24:45.847Z,5.1
2022-12-29T07:25:52.055Z,5.1
2022-12-29T07:26:58.268Z,5.1
2022-12-29T07:28:03.526Z,5.1
2022-12-29T07:29:09.922Z,5.1
2022-12-29T07:30:16.214Z,5.1
2022-12-29T07:31:22.353Z,5
2022-12-29T07:32:28.740Z,5
2022-12-29T07:33:35.012Z,5
2022-12-29T07:34:41.317Z,5
2022-12-29T07:35:47.609Z,5
2022-12-29T07:36:53.655Z,5
2022-12-29T07:38:00.125Z,4.9
2022-12-29T07:39:06.384Z,5
2022-12-29T07:40:12.471Z,5.1
2022-12-29T07:41:18.729Z,5.2
2022-12-29T07:42:24.031Z,5.3
2022-12-29T07:43:30.303Z,5.3
2022-12-29T07:44:36.572Z,5.3
2022-12-29T07:45:42.856Z,5.4
2022-12-29T07:46:49.115Z,5.4
2022-12-29T07:47:55.389Z,5.4
2022-12-29T07:49:01.656Z,5.4
2022-12-29T07:50:07.935Z,5.4
2022-12-29T07:51:14.232Z,5.3
2022-12-29T07:52:20.485Z,5.3
2022-12-29T07:53:26.755Z,5.3
2022-12-29T07:54:33.020Z,5.3
2022-12-29T07:55:39.362Z,5.3
2022-12-29T07:56:45.587Z,5.2
2022-12-29T07:57:50.849Z,5.3
2022-12-29T07:58:57.166Z,5.3
2022-12-29T08:00:03.422Z,5.3
2022-12-29T08:01:09.844Z,5.3
2022-12-29T08:02:15.960Z,5.3
2022-12-29T08:03:22.301Z,5.4
2022-12-29T08:04:28.522Z,5.4
2022-12-29T08:05:34.901Z,5.4
2022-12-29T08:06:41.051Z,5.4
2022-12-29T08:07:47.384Z,5.4
2022-12-29T08:08:53.580Z,5.4
2022-12-29T08:10:00.026Z,5.4
2022-12-29T08:11:06.193Z,5.4
2022-12-29T08:12:11.602Z,5.4
2022-12-29T08:13:17.680Z,5.4
2022-12-29T08:14:24.100Z,5.4
2022-12-29T08:15:30.273Z,5.3
2022-12-29T08:16:36.717Z,5.3
2022-12-29T08:17:42.782Z,5.3
2022-12-29T08:18:49.186Z,5.3
2022-12-29T08:19:55.479Z,5.4
2022-12-29T08:21:01.779Z,5.3
2022-12-29T08:22:07.973Z,5.4
2022-12-29T08:23:14.318Z,5.4
2022-12-29T08:24:20.572Z,5.3
2022-12-29T08:25:26.764Z,5.4
2022-12-29T08:26:32.117Z,5.4
2022-12-29T08:27:38.460Z,5.3
2022-12-29T08:28:44.673Z,5.3
2022-12-29T08:29:51.012Z,5.4
2022-12-29T08:30:57.173Z,5.3
2022-12-29T08:32:03.347Z,5.4
2022-12-29T08:33:09.595Z,5.4
2022-12-29T08:34:15.997Z,5.4
2022-12-29T08:35:22.336Z,5.4
2022-12-29T08:36:28.584Z,5.4
2022-12-29T08:37:34.685Z,5.4
2022-12-29T08:38:41.171Z,5.4
2022-12-29T08:39:47.398Z,5.4
2022-12-29T08:40:52.623Z,5.4
2022-12-29T08:41:58.969Z,5.4
2022-12-29T08:43:05.223Z,5.5
2022-12-29T08:44:11.487Z,5.5
2022-12-29T08:45:17.676Z,5.5
2022-12-29T08:46:23.920Z,5.5
2022-12-29T08:47:30.222Z,5.5
2022-12-29T08:48:36.436Z,5.5
2022-12-29T08:49:42.702Z,5.5
2022-12-29T08:50:48.967Z,5.6
2022-12-29T08:51:55.415Z,5.5
2022-12-29T08:53:01.735Z,5.6
2022-12-29T08:54:07.842Z,5.6
2022-12-29T08:55:13.165Z,5.6
2022-12-29T08:56:19.514Z,5.6
2022-12-29T08:57:25.769Z,5.7
2022-12-29T08:58:32.035Z,5.7
2022-12-29T08:59:38.361Z,5.7
2022-12-29T09:00:44.570Z,5.7
2022-12-29T09:01:50.939Z,5.7
2022-12-29T09:02:56.983Z,5.7
2022-12-29T09:04:03.248Z,5.8
2022-12-29T09:05:09.521Z,5.8
2022-12-29T09:06:15.799Z,5.9
2022-12-29T09:07:22.079Z,5.9
2022-12-29T09:08:28.349Z,6
2022-12-29T09:09:33.630Z,6.1
2022-12-29T09:10:39.952Z,6.1
2022-12-29T09:11:46.175Z,6.2
2022-12-29T09:12:52.448Z,6.3
2022-12-29T09:13:58.723Z,6.3
2022-12-29T09:15:05.039Z,6.4
2022-12-29T09:16:11.260Z,6.4
2022-12-29T09:17:17.541Z,6.4
2022-12-29T09:18:23.814Z,6.5
2022-12-29T09:19:30.083Z,6.5
2022-12-29T09:20:36.367Z,6.5
2022-12-29T09:21:42.625Z,6.6
2022-12-29T09:22:49.046Z,6.6
2022-12-29T09:23:54.189Z,6.6
2022-12-29T09:25:00.459Z,6.6
2022-12-29T09:26:06.733Z,6.7
2022-12-29T09:27:13.001Z,6.7
2022-12-29T09:28:19.331Z,6.8
2022-12-29T09:29:25.637Z,6.8
2022-12-29T09:30:31.817Z,6.9
2022-12-29T09:31:38.165Z,6.9
2022-12-29T09:32:44.392Z,7
2022-12-29T09:33:50.633Z,7
2022-12-29T09:34:56.902Z,7.1
2022-12-29T09:36:03.261Z,7.1
2022-12-29T09:37:09.568Z,7.2
2022-12-29T09:38:14.897Z,7.2
2022-12-29T09:39:21.195Z,7.2
2022-12-29T09:41:33.564Z,7.3
2022-12-29T09:42:39.829Z,7.3
2022-12-29T09:43:46.178Z,7.3
2022-12-29T09:44:52.419Z,7.3
2022-12-29T09:45:58.651Z,7.4
2022-12-29T09:47:04.926Z,7.3
2022-12-29T09:48:11.347Z,7.4
2022-12-29T09:49:17.635Z,7.4
2022-12-29T09:50:23.732Z,7.4
2022-12-29T09:51:30.236Z,7.5
2022-12-29T09:52:35.452Z,7.5
2022-12-29T09:53:41.733Z,7.6
2022-12-29T09:54:47.921Z,7.6
2022-12-29T09:55:54.225Z,7.7
2022-12-29T09:57:00.458Z,7.7
2022-12-29T09:58:06.666Z,7.7
2022-12-29T09:59:12.983Z,7.7
2022-12-29T10:00:19.345Z,7.7
2022-12-29T10:01:25.717Z,7.7
2022-12-29T10:02:31.806Z,7.7
2022-12-29T10:03:38.135Z,7.7
2022-12-29T10:04:44.344Z,7.7
2022-12-29T10:05:50.559Z,7.8
2022-12-29T10:06:55.855Z,7.8
2022-12-29T10:08:02.311Z,7.9
2022-12-29T10:09:08.577Z,8
2022-12-29T10:10:14.845Z,8
2022-12-29T10:11:21.178Z,8.1
2022-12-29T10:12:27.374Z,8.1
2022-12-29T10:13:33.630Z,8.2
2022-12-29T10:14:39.902Z,8.3
2022-12-29T10:15:46.206Z,8.3
2022-12-29T10:16:52.347Z,8.4
2022-12-29T10:17:58.560Z,8.4
2022-12-29T10:19:04.862Z,8.5
2022-12-29T10:20:11.293Z,8.5
2022-12-29T10:21:16.635Z,8.5
2022-12-29T10:22:22.704Z,8.6
2022-12-29T10:23:29.094Z,8.7
2022-12-29T10:24:35.410Z,8.7
2022-12-29T10:25:41.717Z,8.8
2022-12-29T10:26:47.055Z,8.8
2022-12-29T10:27:53.154Z,8.9
2022-12-29T10:28:59.539Z,8.9
2022-12-29T10:30:05.601Z,8.9
2022-12-29T10:31:11.871Z,8.9
2022-12-29T10:32:18.166Z,8.9
2022-12-29T10:33:24.422Z,9
2022-12-29T10:34:30.683Z,9
2022-12-29T10:35:36.972Z,9.1
2022-12-29T10:36:43.239Z,9.1
2022-12-29T10:37:49.542Z,9.2
2022-12-29T10:38:55.790Z,9.3
2022-12-29T10:40:02.062Z,9.4
2022-12-29T10:41:07.344Z,9.4
2022-12-29T10:42:13.635Z,9.5
2022-12-29T10:43:19.883Z,9.6
2022-12-29T10:44:26.206Z,9.6
2022-12-29T10:45:32.450Z,9.7
2022-12-29T10:47:44.974Z,9.7
2022-12-29T10:48:51.245Z,9.8
2022-12-29T10:49:57.518Z,9.8
2022-12-29T10:51:03.785Z,9.8
2022-12-29T10:52:10.075Z,9.8
2022-12-29T10:53:16.332Z,9.9
2022-12-29T10:54:22.607Z,9.9
2022-12-29T10:55:27.895Z,10
2022-12-29T10:56:34.201Z,10
2022-12-29T10:57:40.451Z,10
2022-12-29T10:58:46.706Z,10
2022-12-29T10:59:52.996Z,10.1
2022-12-29T11:00:59.252Z,10.1
2022-12-29T11:02:05.532Z,10
2022-12-29T11:04:18.075Z,10
2022-12-29T11:05:24.344Z,10
2022-12-29T11:06:30.644Z,10
2022-12-29T11:07:36.885Z,10
2022-12-29T11:08:43.163Z,10
2022-12-29T11:09:48.451Z,10
2022-12-29T11:10:54.728Z,10.1
2022-12-29T11:12:00.991Z,10.1
2022-12-29T11:13:07.268Z,10.1
2022-12-29T11:14:13.551Z,10.1
2022-12-29T11:15:19.819Z,10.1
2022-12-29T11:16:26.097Z,10.1
2022-12-29T11:17:32.354Z,10.2
2022-12-29T11:18:38.638Z,10.3
2022-12-29T11:19:44.908Z,10.3
2022-12-29T11:20:51.175Z,10.4
2022-12-29T11:21:57.441Z,10.4
2022-12-29T11:23:03.720Z,10.4
2022-12-29T11:24:09.002Z,10.4
2022-12-29T11:25:15.283Z,10.5
2022-12-29T11:26:21.554Z,10.5
2022-12-29T11:27:27.816Z,10.5
2022-12-29T11:28:34.100Z,10.5
2022-12-29T11:29:40.386Z,10.6
2022-12-29T11:30:46.639Z,10.6
2022-12-29T11:31:52.912Z,10.6
2022-12-29T11:32:59.183Z,10.6
2022-12-29T11:34:05.453Z,10.6
2022-12-29T11:35:11.729Z,10.6
2022-12-29T11:36:18.011Z,10.6
2022-12-29T11:37:24.266Z,10.6
2022-12-29T11:38:29.558Z,10.6
2022-12-29T11:39:35.832Z,10.6
2022-12-29T11:40:42.099Z,10.5
2022-12-29T11:41:48.370Z,10.6
2022-12-29T11:42:54.652Z,10.5
2022-12-29T11:44:00.919Z,10.5
2022-12-29T11:45:06.235Z,10.5
2022-12-29T11:46:11.508Z,10.5
2022-12-29T11:47:17.783Z,10.5
2022-12-29T11:48:24.052Z,10.5
2022-12-29T11:49:30.321Z,10.5
2022-12-29T11:50:35.632Z,10.5
2022-12-29T11:51:40.913Z,10.5
2022-12-29T11:52:47.198Z,10.5
2022-12-29T11:53:53.461Z,10.6
2022-12-29T11:54:59.732Z,10.5
2022-12-29T11:56:06.005Z,10.6
2022-12-29T11:57:12.277Z,10.6
2022-12-29T11:58:18.545Z,10.6
2022-12-29T11:59:24.833Z,10.6
2022-12-29T12:00:31.124Z,10.6
2022-12-29T12:01:37.367Z,10.6
2022-12-29T12:02:43.641Z,10.6
2022-12-29T12:03:49.905Z,10.6
2022-12-29T12:04:56.186Z,10.7
2022-12-29T12:06:01.484Z,10.7
2022-12-29T12:07:07.741Z,10.7
2022-12-29T12:08:14.025Z,10.7
2022-12-29T12:09:20.284Z,10.7
2022-12-29T12:10:26.575Z,10.7
2022-12-29T12:11:32.823Z,10.7
2022-12-29T12:12:39.096Z,10.7
2022-12-29T12:13:45.367Z,10.8
2022-12-29T12:14:51.650Z,10.7
2022-12-29T12:15:57.917Z,10.7
2022-12-29T12:17:04.193Z,10.7
2022-12-29T12:18:10.464Z,10.7
2022-12-29T12:19:16.737Z,10.7
2022-12-29T12:20:22.032Z,10.7
2022-12-29T12:21:28.297Z,10.7
2022-12-29T12:22:34.575Z,10.7
2022-12-29T12:23:40.842Z,10.7
2022-12-29T12:24:47.128Z,10.7
2022-12-29T12:26:59.654Z,10.6
2022-12-29T12:28:05.951Z,10.7
2022-12-29T12:29:12.209Z,10.6
2022-12-29T12:30:18.472Z,10.6
2022-12-29T12:31:24.742Z,10.6
2022-12-29T12:32:31.013Z,10.6
2022-12-29T12:33:37.291Z,10.6
2022-12-29T12:34:43.564Z,10.6
2022-12-29T12:35:49.830Z,10.5
2022-12-29T12:36:55.125Z,10.5
2022-12-29T12:38:01.400Z,10.5
2022-12-29T12:39:07.707Z,10.5
2022-12-29T12:40:13.937Z,10.5
2022-12-29T12:41:20.215Z,10.5
2022-12-29T12:42:26.488Z,10.5
2022-12-29T12:43:32.761Z,10.5
2022-12-29T12:44:39.025Z,10.5
2022-12-29T12:45:45.297Z,10.5
2022-12-29T12:46:51.571Z,10.6
2022-12-29T12:47:57.844Z,10.6
2022-12-29T12:49:04.134Z,10.6
2022-12-29T12:50:10.406Z,10.6
2022-12-29T12:51:15.672Z,10.6
2022-12-29T12:52:21.952Z,10.6
2022-12-29T12:53:28.237Z,10.5
2022-12-29T12:54:34.581Z,10.5
2022-12-29T12:55:40.805Z,10.5
2022-12-29T12:56:47.173Z,10.5
2022-12-29T12:57:53.319Z,10.5
2022-12-29T12:58:59.616Z,10.5
2022-12-29T13:00:05.964Z,10.5
2022-12-29T13:01:12.255Z,10.5
2022-12-29T13:02:18.400Z,10.5
2022-12-29T13:03:24.743Z,10.5
2022-12-29T13:04:31.086Z,10.5
2022-12-29T13:05:36.232Z,10.5
2022-12-29T13:06:42.619Z,10.5
2022-12-29T13:07:48.921Z,10.5
2022-12-29T13:08:55.080Z,10.5
2022-12-29T13:10:01.481Z,10.5
2022-12-29T13:11:07.612Z,10.5
2022-12-29T13:12:13.868Z,10.6
2022-12-29T13:13:20.179Z,10.6
2022-12-29T13:14:26.509Z,10.6
2022-12-29T13:15:32.722Z,10.5
2022-12-29T13:16:38.959Z,10.6
2022-12-29T13:17:45.233Z,10.6
2022-12-29T13:18:51.599Z,10.6
2022-12-29T13:19:56.887Z,10.6
2022-12-29T13:21:03.062Z,10.6
2022-12-29T13:22:09.376Z,10.5
2022-12-29T13:23:15.674Z,10.5
2022-12-29T13:24:22.048Z,10.5
2022-12-29T13:25:28.311Z,10.5
2022-12-29T13:26:34.422Z,10.5
2022-12-29T13:27:40.796Z,10.5
2022-12-29T13:28:46.962Z,10.5
2022-12-29T13:29:53.258Z,10.5
2022-12-29T13:30:59.518Z,10.5
2022-12-29T13:32:05.873Z,10.5
2022-12-29T13:33:12.055Z,10.5
2022-12-29T13:34:17.340Z,10.5
2022-12-29T13:35:23.746Z,10.5
2022-12-29T13:36:29.947Z,10.5
2022-12-29T13:37:36.161Z,10.5
2022-12-29T13:38:42.511Z,10.5
2022-12-29T13:39:48.754Z,10.5
2022-12-29T13:40:54.977Z,10.5
2022-12-29T13:42:01.314Z,10.5
2022-12-29T13:43:07.530Z,10.5
2022-12-29T13:44:13.795Z,10.5
2022-12-29T13:45:20.061Z,10.5
2022-12-29T13:46:26.439Z,10.5
2022-12-29T13:47:32.633Z,10.5
2022-12-29T13:48:37.892Z,10.5
2022-12-29T13:49:44.168Z,10.5
2022-12-29T13:50:50.510Z,10.5
2022-12-29T13:51:56.759Z,10.5
2022-12-29T13:53:03.049Z,10.5
2022-12-29T13:54:09.264Z,10.5
2022-12-29T13:55:15.628Z,10.5
2022-12-29T13:56:21.891Z,10.5
2022-12-29T13:57:28.142Z,10.4
2022-12-29T13:58:34.421Z,10.4
2022-12-29T13:59:40.754Z,10.4
2022-12-29T14:00:46.886Z,10.4
2022-12-29T14:01:53.162Z,10.4
2022-12-29T14:02:58.477Z,10.4
2022-12-29T14:04:04.732Z,10.4
2022-12-29T14:05:11.006Z,10.4
2022-12-29T14:06:17.272Z,10.4
2022-12-29T14:07:23.549Z,10.5
2022-12-29T14:08:28.842Z,10.5
2022-12-29T14:09:35.121Z,10.5
2022-12-29T14:10:41.385Z,10.5
2022-12-29T14:11:47.676Z,10.5
2022-12-29T14:12:53.918Z,10.5
2022-12-29T14:14:00.200Z,10.5
2022-12-29T14:15:06.478Z,10.5
2022-12-29T14:16:12.744Z,10.5
2022-12-29T14:17:19.024Z,10.5
2022-12-29T14:18:25.287Z,10.5
2022-12-29T14:19:31.558Z,10.5
2022-12-29T14:20:37.832Z,10.5
2022-12-29T14:21:44.107Z,10.5
2022-12-29T14:22:49.407Z,10.6
2022-12-29T14:23:55.664Z,10.6
2022-12-29T14:25:01.935Z,10.6
2022-12-29T14:26:08.203Z,10.6
2022-12-29T14:27:14.501Z,10.5
2022-12-29T14:28:20.756Z,10.6
2022-12-29T14:29:27.030Z,10.5
2022-12-29T14:30:33.303Z,10.6
2022-12-29T14:31:39.591Z,10.6
2022-12-29T14:32:45.896Z,10.6
2022-12-29T14:33:52.124Z,10.6
2022-12-29T14:34:58.384Z,10.6
2022-12-29T14:36:04.654Z,10.6
2022-12-29T14:37:09.952Z,10.6
2022-12-29T14:39:22.493Z,10.6
2022-12-29T14:40:28.794Z,10.6
2022-12-29T14:41:35.037Z,10.6
2022-12-29T14:42:41.308Z,10.5
2022-12-29T14:43:47.582Z,10.5
2022-12-29T14:44:53.859Z,10.6
2022-12-29T14:46:00.135Z,10.5
2022-12-29T14:47:06.399Z,10.5
2022-12-29T14:48:12.679Z,10.5
2022-12-29T14:49:18.970Z,10.4
2022-12-29T14:50:25.211Z,10.4
2022-12-29T14:51:30.506Z,10.4
2022-12-29T14:52:36.780Z,10.5
2022-12-29T14:53:43.054Z,10.5
2022-12-29T14:54:49.325Z,10.5
2022-12-29T14:55:55.587Z,10.5
2022-12-29T14:57:01.862Z,10.5
2022-12-29T14:58:08.137Z,10.5
2022-12-29T14:59:14.409Z,10.5
2022-12-29T15:00:20.693Z,10.5
2022-12-29T15:01:26.953Z,10.5
2022-12-29T15:02:33.219Z,10.4
2022-12-29T15:03:39.518Z,10.4
2022-12-29T15:04:45.776Z,10.4
2022-12-29T15:05:51.067Z,10.4
2022-12-29T15:06:57.335Z,10.4
2022-12-29T15:08:03.603Z,10.3
2022-12-29T15:09:09.879Z,10.3
2022-12-29T15:10:16.153Z,10.3
2022-12-29T15:11:22.429Z,10.2
2022-12-29T15:12:28.698Z,10.2